Time;durP1;ratioP1;P1;durP2;ratioP2;P2;SDS_P1;SDS_P2;PMS_P1;PMS_P2;Temp;Humidity;BMP_temperature;BMP_pressure;BME280_temperature;BME280_humidity;BME280_pressure;Samples;Min_cycle;Max_cycle;Signal;HPM_P1;HPM_P2
2022/08/16 00:03:08;;;;;;;19.10;11.70;;;;;;;21.16;74.05;101457.13;10559103;28;20433;-79
2022/08/16 00:08:11;;;;;;;15.85;11.80;;;;;;;20.99;74.13;101459.97;10578419;28;20051;-79
2022/08/16 00:13:13;;;;;;;14.85;11.25;;;;;;;20.98;74.61;101469.50;10565206;28;20051;-79
2022/08/16 00:18:17;;;;;;;16.58;10.48;;;;;;;20.94;74.62;101466.56;10594130;28;20039;-78
2022/08/16 00:23:19;;;;;;;16.05;11.25;;;;;;;20.96;75.14;101460.63;10561954;28;20036;-78
2022/08/16 00:28:22;;;;;;;17.05;10.48;;;;;;;20.86;74.51;101469.38;10567105;28;20044;-78
2022/08/16 00:33:24;;;;;;;16.35;11.32;;;;;;;20.86;75.11;101464.63;10582501;28;20031;-78
2022/08/16 00:38:27;;;;;;;17.33;10.52;;;;;;;20.92;75.28;101466.06;10563142;28;20055;-78
2022/08/16 00:43:34;;;;;;;14.95;10.98;;;;;;;20.94;74.76;101454.56;10547165;28;20036;-79
2022/08/16 00:48:37;;;;;;;14.57;10.27;;;;;;;21.05;73.95;101455.88;10544628;28;20035;-78
2022/08/16 00:53:40;;;;;;;13.52;9.77;;;;;;;21.15;73.22;101451.88;10560816;28;20043;-78
2022/08/16 00:58:44;;;;;;;14.88;10.68;;;;;;;21.25;71.86;101449.59;10581138;28;20046;-79
2022/08/16 01:03:49;;;;;;;11.93;9.55;;;;;;;21.20;72.20;101446.16;10575296;28;20051;-79
2022/08/16 01:08:54;;;;;;;18.45;11.43;;;;;;;21.14;72.43;101437.13;10536921;28;20421;-78
2022/08/16 01:14:02;;;;;;;19.48;11.18;;;;;;;21.08;72.16;101455.19;10575614;27;20048;-79
2022/08/16 01:19:17;;;;;;;17.13;11.63;;;;;;;20.93;72.81;101452.94;10596087;28;20050;-78
2022/08/16 01:24:23;;;;;;;15.63;10.65;;;;;;;20.83;72.90;101450.50;10565183;28;20682;-78
2022/08/16 01:29:33;;;;;;;16.67;11.52;;;;;;;20.69;73.34;101453.47;10562909;28;20046;-78
2022/08/16 01:34:36;;;;;;;16.70;11.15;;;;;;;20.58;73.59;101455.78;10574707;28;20554;-78
2022/08/16 01:39:39;;;;;;;12.23;8.57;;;;;;;20.48;73.99;101442.19;10562187;28;20387;-78
2022/08/16 01:44:42;;;;;;;15.70;9.93;;;;;;;20.52;73.87;101447.91;10556563;28;20940;-78
2022/08/16 01:49:45;;;;;;;17.08;10.32;;;;;;;20.52;74.50;101443.16;10575901;28;20060;-78
2022/08/16 01:54:47;;;;;;;14.15;10.32;;;;;;;20.55;73.68;101441.66;10575243;28;20594;-78
2022/08/16 01:59:49;;;;;;;14.15;9.88;;;;;;;20.65;73.57;101438.53;10560473;28;20048;-78
2022/08/16 02:04:54;;;;;;;13.80;10.85;;;;;;;20.55;73.40;101448.06;10557691;28;20051;-78
2022/08/16 02:09:57;;;;;;;20.60;10.48;;;;;;;20.47;74.04;101448.88;10562677;28;20043;-79
2022/08/16 02:15:03;;;;;;;14.20;10.00;;;;;;;20.40;73.78;101442.94;10542490;28;20055;-78
2022/08/16 02:20:07;;;;;;;17.48;10.65;;;;;;;20.33;74.44;101434.28;10583769;28;20051;-78
2022/08/16 02:25:12;;;;;;;13.20;9.82;;;;;;;20.27;74.34;101436.38;10561683;28;20035;-78
2022/08/16 02:30:21;;;;;;;12.57;9.80;;;;;;;20.21;73.69;101425.72;10549521;28;20044;-78
2022/08/16 02:35:24;;;;;;;15.27;10.27;;;;;;;20.29;74.23;101420.16;10563930;28;20043;-77
2022/08/16 02:40:27;;;;;;;13.70;10.15;;;;;;;20.27;74.28;101418.84;10555615;28;20039;-78
2022/08/16 02:45:30;;;;;;;13.13;9.10;;;;;;;20.25;74.15;101418.34;10579811;28;20047;-77
2022/08/16 02:50:33;;;;;;;19.10;9.93;;;;;;;20.24;74.04;101419.50;10577124;28;20035;-77
2022/08/16 02:55:35;;;;;;;16.75;10.27;;;;;;;20.21;74.16;101417.38;10589770;28;20043;-78
2022/08/16 03:00:38;;;;;;;14.10;10.73;;;;;;;20.12;74.30;101431.28;10612204;28;20044;-78
2022/08/16 03:05:40;;;;;;;16.65;10.40;;;;;;;20.15;74.53;101425.91;10595294;28;20040;-78
2022/08/16 03:10:43;;;;;;;14.05;11.02;;;;;;;20.23;74.39;101429.00;10591853;28;20051;-78
2022/08/16 03:15:46;;;;;;;14.02;9.48;;;;;;;20.27;73.87;101430.00;10556707;28;20044;-78
2022/08/16 03:20:49;;;;;;;14.55;9.90;;;;;;;20.39;73.42;101424.59;10593526;28;20031;-78
2022/08/16 03:25:51;;;;;;;13.75;10.18;;;;;;;20.56;73.25;101424.59;10593608;28;20044;-78
2022/08/16 03:30:54;;;;;;;14.15;10.00;;;;;;;20.71;73.17;101424.09;10576704;28;20441;-78
2022/08/16 03:35:58;;;;;;;14.45;10.25;;;;;;;21.01;72.03;101424.22;10592392;28;20052;-78
2022/08/16 03:41:11;;;;;;;13.68;9.63;;;;;;;21.25;71.05;101420.88;10575489;28;20051;-78
2022/08/16 03:46:14;;;;;;;15.07;9.88;;;;;;;21.55;69.58;101433.72;10608357;28;20043;-78
2022/08/16 03:51:17;;;;;;;17.85;10.13;;;;;;;21.83;69.48;101427.63;10589836;28;20047;-77
2022/08/16 03:56:26;;;;;;;16.30;10.77;;;;;;;22.07;67.84;101439.03;10590163;28;20047;-78
2022/08/16 04:01:30;;;;;;;15.65;9.98;;;;;;;22.09;67.58;101428.31;10590034;28;20040;-77
2022/08/16 04:06:33;;;;;;;14.13;10.02;;;;;;;22.36;67.48;101435.31;10605269;28;20043;-79
2022/08/16 04:11:36;;;;;;;17.70;10.57;;;;;;;22.68;66.31;101424.53;10589743;27;20961;-79
2022/08/16 04:16:38;;;;;;;15.63;10.57;;;;;;;23.02;65.51;101429.78;10591878;28;20134;-78
2022/08/16 04:22:00;;;;;;;15.10;10.10;;;;;;;23.36;63.82;101422.97;10583926;28;20032;-77
2022/08/16 04:27:08;;;;;;;15.82;9.75;;;;;;;23.58;63.02;101429.28;10575777;28;20540;-78
2022/08/16 04:32:12;;;;;;;15.10;9.93;;;;;;;23.82;63.06;101429.31;10587029;28;20533;-79
2022/08/16 04:37:14;;;;;;;13.25;9.52;;;;;;;24.35;61.35;101432.97;10591130;28;20036;-78
2022/08/16 04:42:21;;;;;;;17.57;9.93;;;;;;;24.40;61.30;101429.91;10577555;28;20039;-78
2022/08/16 04:47:27;;;;;;;19.35;10.70;;;;;;;24.67;60.31;101442.31;10577542;28;20039;-78
2022/08/16 04:52:30;;;;;;;19.15;10.40;;;;;;;24.83;60.32;101429.13;10566919;28;20054;-78
2022/08/16 04:57:32;;;;;;;14.73;9.95;;;;;;;25.22;59.02;101440.63;10594693;28;20048;-78
2022/08/16 05:02:35;;;;;;;14.93;10.00;;;;;;;25.34;57.87;101432.13;10552573;28;20055;-79
2022/08/16 05:07:38;;;;;;;14.25;10.45;;;;;;;25.70;57.95;101430.22;10570784;28;20051;-79
2022/08/16 05:12:40;;;;;;;17.83;10.77;;;;;;;26.03;57.07;101424.16;10575212;28;20051;-79
2022/08/16 05:17:43;;;;;;;14.70;10.07;;;;;;;26.19;56.56;101424.91;10593792;27;20039;-79
2022/08/16 05:22:49;;;;;;;15.00;9.40;;;;;;;26.41;55.97;101412.97;10591105;28;20047;-79
2022/08/16 05:27:56;;;;;;;20.25;10.07;;;;;;;26.52;55.42;101423.63;10587317;28;20048;-78
2022/08/16 05:32:59;;;;;;;16.65;10.00;;;;;;;26.58;55.65;101427.78;10571292;28;20040;-78
2022/08/16 05:38:01;;;;;;;11.27;9.70;;;;;;;26.95;54.22;101426.09;10590730;28;20039;-79
2022/08/16 05:43:06;;;;;;;11.18;9.15;;;;;;;27.51;53.69;101424.69;10590012;28;20039;-78
2022/08/16 05:48:08;;;;;;;11.98;9.55;;;;;;;27.49;53.59;101415.81;10569318;28;20526;-78
2022/08/16 05:53:31;;;;;;;13.05;9.63;;;;;;;27.96;52.01;101417.38;10608615;28;20040;-79
2022/08/16 05:58:40;;;;;;;13.73;8.68;;;;;;;28.16;52.05;101414.03;10596911;27;20040;-79
2022/08/16 06:03:45;;;;;;;22.15;9.68;;;;;;;28.51;50.55;101416.53;10583951;28;20044;-79
2022/08/16 06:09:00;;;;;;;12.13;8.53;;;;;;;28.86;49.76;101417.31;10597514;28;20048;-79
2022/08/16 06:14:05;;;;;;;14.88;8.30;;;;;;;28.98;49.84;101423.50;10593199;28;20047;-79
2022/08/16 06:19:13;;;;;;;13.73;8.32;;;;;;;29.30;48.71;101423.81;10598312;28;20556;-80
2022/08/16 06:24:22;;;;;;;11.13;7.82;;;;;;;29.48;48.46;101421.19;10599536;28;20409;-79
2022/08/16 06:29:24;;;;;;;11.57;8.45;;;;;;;29.79;47.57;101422.63;10599932;28;20039;-79
2022/08/16 06:34:27;;;;;;;10.48;7.78;;;;;;;30.24;46.77;101421.31;10565284;28;20044;-78
2022/08/16 06:39:30;;;;;;;11.05;7.55;;;;;;;30.27;46.49;101420.50;10615759;28;20063;-79
2022/08/16 06:44:42;;;;;;;10.68;7.32;;;;;;;30.58;45.15;101413.38;10560822;28;20039;-80
2022/08/16 06:50:10;;;;;;;12.07;7.38;;;;;;;30.77;44.52;101419.91;10592022;28;20054;-80
2022/08/16 06:55:20;;;;;;;9.10;6.97;;;;;;;31.01;44.29;101419.16;10597103;28;20048;-80
2022/08/16 07:00:28;;;;;;;7.70;6.78;;;;;;;31.17;43.41;101421.59;10585474;28;20039;-80
2022/08/16 07:05:42;;;;;;;9.35;6.93;;;;;;;31.43;43.25;101426.94;10614571;28;20036;-80
2022/08/16 07:10:57;;;;;;;10.40;6.38;;;;;;;31.38;43.23;101415.16;10583435;28;20050;-80
2022/08/16 07:16:04;;;;;;;8.48;6.25;;;;;;;31.47;43.05;101407.06;10609134;28;20047;-80
2022/08/16 07:21:08;;;;;;;10.02;6.28;;;;;;;31.40;42.61;101424.88;10600349;28;20044;-79
2022/08/16 07:26:19;;;;;;;12.15;6.20;;;;;;;31.49;42.47;101433.00;10592703;27;20032;-80
2022/08/16 07:31:21;;;;;;;7.72;6.07;;;;;;;31.77;41.43;101418.00;10613507;28;20048;-80
2022/08/16 07:36:24;;;;;;;8.83;5.90;;;;;;;31.80;40.82;101420.03;10608996;28;20050;-80
2022/08/16 07:41:27;;;;;;;7.10;5.88;;;;;;;31.97;40.25;101422.03;10593297;28;20047;-80
2022/08/16 07:46:36;;;;;;;6.68;4.93;;;;;;;32.14;39.62;101414.69;10595801;28;20409;-79
2022/08/16 07:51:43;;;;;;;5.95;5.35;;;;;;;32.43;38.86;101414.56;10595767;28;20055;-79
2022/08/16 07:56:46;;;;;;;9.82;5.93;;;;;;;32.82;38.21;101406.69;10579468;28;20039;-79
2022/08/16 08:01:50;;;;;;;6.93;6.20;;;;;;;33.01;38.26;101413.06;10577021;28;20039;-79
2022/08/16 08:06:52;;;;;;;8.05;6.38;;;;;;;33.35;37.70;101416.09;10593324;27;20804;-82
2022/08/16 08:11:55;;;;;;;7.63;5.85;;;;;;;33.15;37.36;101415.78;10594718;28;20052;-78
2022/08/16 08:16:57;;;;;;;11.60;6.57;;;;;;;32.96;37.28;101411.47;10592685;28;20043;-80
2022/08/16 08:22:04;;;;;;;8.15;5.90;;;;;;;32.61;37.16;101424.63;10587950;28;20044;-79
2022/08/16 08:27:15;;;;;;;7.28;6.57;;;;;;;32.64;37.82;101426.66;10560519;28;20052;-79
2022/08/16 08:32:20;;;;;;;6.95;6.35;;;;;;;32.65;38.24;101422.59;10564762;28;20042;-78
2022/08/16 08:37:23;;;;;;;7.00;5.55;;;;;;;32.68;38.55;101403.91;10606927;28;20046;-78
2022/08/16 08:42:27;;;;;;;10.82;6.38;;;;;;;32.64;38.42;101418.16;10590051;28;20040;-80
2022/08/16 08:47:30;;;;;;;10.27;6.73;;;;;;;32.68;37.36;101423.81;10579689;28;20524;-79
2022/08/16 08:52:32;;;;;;;5.60;4.88;;;;;;;32.59;37.03;101404.34;10594328;28;20056;-79
2022/08/16 08:57:35;;;;;;;7.00;6.07;;;;;;;32.18;37.97;101409.78;10594906;28;20040;-79
2022/08/16 09:03:10;;;;;;;7.53;6.38;;;;;;;32.36;38.13;101402.03;10572756;28;20054;-80
2022/08/16 09:08:16;;;;;;;7.18;5.85;;;;;;;32.62;37.24;101409.19;10594256;28;20055;-80
2022/08/16 09:13:24;;;;;;;7.97;6.05;;;;;;;32.65;36.66;101408.41;10594100;28;20050;-80
2022/08/16 09:18:28;;;;;;;8.45;6.43;;;;;;;32.49;36.97;101410.09;10611278;28;20051;-80
2022/08/16 09:23:30;;;;;;;6.60;6.00;;;;;;;32.44;36.81;101413.34;10611771;28;20454;-80
2022/08/16 09:28:34;;;;;;;6.68;5.85;;;;;;;32.12;36.98;101411.44;10594283;28;20039;-79
2022/08/16 09:33:57;;;;;;;6.25;5.68;;;;;;;31.40;37.32;101398.53;10593203;28;20047;-79
2022/08/16 09:39:03;;;;;;;7.57;6.53;;;;;;;30.65;39.05;101400.44;10611763;28;20040;-80
2022/08/16 09:44:05;;;;;;;7.18;5.55;;;;;;;30.14;40.38;101405.06;10611584;28;20062;-79
2022/08/16 09:49:07;;;;;;;8.20;6.38;;;;;;;29.79;41.03;101390.69;10592883;28;20039;-79
2022/08/16 09:54:10;;;;;;;7.50;6.43;;;;;;;29.58;41.48;101397.84;10610869;28;20035;-80
2022/08/16 09:59:14;;;;;;;7.45;6.53;;;;;;;29.50;42.37;101390.47;10610538;28;20051;-79
2022/08/16 10:04:17;;;;;;;10.00;6.57;;;;;;;29.46;41.83;101398.13;10575849;28;20031;-79
2022/08/16 10:09:19;;;;;;;8.00;6.25;;;;;;;29.31;42.01;101397.16;10610659;28;20061;-79
2022/08/16 10:14:22;;;;;;;9.85;5.90;;;;;;;29.32;41.65;101392.31;10592137;28;20047;-79
2022/08/16 10:19:25;;;;;;;9.65;5.45;;;;;;;29.29;41.73;101387.47;10609755;28;20047;-80
2022/08/16 10:24:27;;;;;;;6.00;5.32;;;;;;;29.31;41.58;101385.06;10610003;28;20046;-80
2022/08/16 10:29:29;;;;;;;7.30;6.32;;;;;;;29.31;41.03;101385.88;10592415;28;20051;-79
2022/08/16 10:34:32;;;;;;;6.03;5.15;;;;;;;29.21;40.56;101386.59;10608861;28;20043;-79
2022/08/16 10:39:34;;;;;;;6.85;5.65;;;;;;;29.20;40.11;101376.50;10610108;28;20501;-79
2022/08/16 10:44:37;;;;;;;5.72;5.20;;;;;;;29.26;40.89;101382.59;10615365;28;20413;-77
2022/08/16 10:49:39;;;;;;;12.07;6.53;;;;;;;29.16;41.28;101380.47;10622802;27;20051;-76
2022/08/16 10:54:41;;;;;;;7.28;6.20;;;;;;;29.04;41.60;101376.75;10592754;28;20409;-75
2022/08/16 10:59:44;;;;;;;8.00;7.20;;;;;;;28.99;41.55;101371.47;10604080;28;20051;-78
2022/08/16 11:04:46;;;;;;;8.63;6.45;;;;;;;28.91;41.96;101366.94;10599685;28;20047;-76
2022/08/16 11:09:48;;;;;;;6.53;5.75;;;;;;;28.85;42.01;101362.00;10591057;28;20043;-76
2022/08/16 11:14:50;;;;;;;7.15;5.65;;;;;;;28.72;42.63;101365.09;10608361;28;20043;-76
2022/08/16 11:19:53;;;;;;;7.95;6.05;;;;;;;28.59;42.50;101363.75;10588893;28;20056;-74
2022/08/16 11:25:00;;;;;;;8.15;5.75;;;;;;;28.52;43.00;101364.50;10563694;28;20493;-74
2022/08/16 11:30:04;;;;;;;8.48;6.18;;;;;;;28.49;42.66;101368.09;10614852;28;20054;-76
2022/08/16 11:35:10;;;;;;;5.38;4.55;;;;;;;28.42;41.34;101355.88;10573465;28;20039;-74
2022/08/16 11:40:13;;;;;;;7.55;5.70;;;;;;;28.45;41.51;101341.81;10593421;28;20032;-74
2022/08/16 11:45:16;;;;;;;6.70;5.72;;;;;;;28.55;40.64;101347.97;10596823;27;20039;-74
2022/08/16 11:50:19;;;;;;;10.80;6.10;;;;;;;28.63;40.60;101344.00;10608863;28;20048;-76
2022/08/16 11:55:21;;;;;;;8.30;5.85;;;;;;;28.68;41.05;101355.78;10593784;28;20035;-76
2022/08/16 12:00:24;;;;;;;8.02;5.75;;;;;;;28.68;41.07;101352.16;10594863;28;20040;-74
2022/08/16 12:05:26;;;;;;;9.05;6.18;;;;;;;28.76;41.02;101345.38;10589909;27;20032;-74
2022/08/16 12:10:29;;;;;;;7.18;5.80;;;;;;;28.73;40.41;101348.97;10592341;27;20051;-76
2022/08/16 12:15:31;;;;;;;6.90;4.97;;;;;;;28.72;40.24;101336.88;10592081;27;20048;-75
2022/08/16 12:20:37;;;;;;;7.60;5.63;;;;;;;28.73;39.77;101338.50;10624398;27;20053;-75
2022/08/16 12:25:39;;;;;;;6.63;4.85;;;;;;;28.76;39.95;101334.06;10603757;27;20067;-74
2022/08/16 12:30:43;;;;;;;7.80;5.63;;;;;;;28.86;40.57;101329.72;10609212;28;20059;-73
2022/08/16 12:35:47;;;;;;;7.57;5.85;;;;;;;28.85;40.25;101337.41;10587624;28;20070;-75
2022/08/16 12:40:52;;;;;;;6.80;5.70;;;;;;;28.82;39.65;101335.34;10580831;28;20046;-74
2022/08/16 12:45:55;;;;;;;7.13;5.70;;;;;;;28.86;39.95;101339.06;10579053;28;20423;-74
2022/08/16 12:50:57;;;;;;;11.18;5.45;;;;;;;28.91;40.00;101335.88;10604744;28;20043;-74
2022/08/16 12:55:59;;;;;;;9.23;6.85;;;;;;;28.92;40.19;101331.03;10603666;28;20051;-73
2022/08/16 13:01:02;;;;;;;6.40;5.57;;;;;;;28.79;40.08;101325.63;10599221;28;20047;-73
2022/08/16 13:06:05;;;;;;;7.32;5.38;;;;;;;28.74;40.23;101323.16;10603801;28;20035;-73
2022/08/16 13:11:07;;;;;;;10.45;5.68;;;;;;;28.76;40.60;101311.47;10570844;27;20044;-74
2022/08/16 13:16:10;;;;;;;6.70;5.68;;;;;;;28.74;41.08;101311.88;10587193;28;20036;-72
2022/08/16 13:21:12;;;;;;;8.88;5.50;;;;;;;28.66;40.90;101315.84;10605356;28;20489;-73
2022/08/16 13:26:14;;;;;;;8.15;5.90;;;;;;;28.55;41.63;101314.09;10569940;28;20063;-73
2022/08/16 13:31:17;;;;;;;5.85;5.13;;;;;;;28.50;41.59;101318.09;10600589;27;20130;-73
2022/08/16 13:36:19;;;;;;;10.65;5.70;;;;;;;28.41;41.93;101321.19;10586390;28;20039;-74
2022/08/16 13:41:21;;;;;;;8.23;6.28;;;;;;;28.37;41.79;101317.53;10609271;28;20035;-73
2022/08/16 13:46:23;;;;;;;8.13;7.07;;;;;;;28.38;41.41;101313.50;10595385;28;20039;-73
2022/08/16 13:51:28;;;;;;;10.77;6.57;;;;;;;28.42;41.39;101305.88;10584912;28;20035;-74
2022/08/16 13:56:33;;;;;;;6.82;6.13;;;;;;;28.40;41.44;101308.28;10595952;28;20045;-73
2022/08/16 14:01:36;;;;;;;7.93;5.53;;;;;;;28.41;41.20;101309.09;10569197;28;20054;-75
2022/08/16 14:06:38;;;;;;;9.15;5.93;;;;;;;28.38;41.79;101299.41;10570084;28;20603;-74
2022/08/16 14:11:41;;;;;;;8.95;6.53;;;;;;;28.36;41.43;101307.44;10569073;28;20520;-74
2022/08/16 14:16:43;;;;;;;10.02;7.53;;;;;;;28.30;41.83;101300.53;10616614;27;20043;-76
2022/08/16 14:21:46;;;;;;;8.40;6.28;;;;;;;28.27;41.18;101292.81;10572507;28;20352;-77
2022/08/16 14:26:48;;;;;;;10.65;6.47;;;;;;;28.26;41.85;101296.84;10600511;28;20054;-78
2022/08/16 14:31:51;;;;;;;11.77;6.57;;;;;;;28.27;41.30;101295.63;10575283;28;20447;-79
2022/08/16 14:36:53;;;;;;;9.88;7.68;;;;;;;28.22;41.35;101293.94;10597836;27;20035;-73
2022/08/16 14:42:02;;;;;;;11.05;7.45;;;;;;;28.14;41.71;101272.50;10608810;27;20067;-73
2022/08/16 14:47:05;;;;;;;10.43;6.65;;;;;;;28.10;41.39;101276.47;10593730;28;20505;-74
2022/08/16 14:52:17;;;;;;;11.07;6.38;;;;;;;28.05;41.57;101271.97;10572979;28;20058;-74
2022/08/16 14:57:19;;;;;;;12.80;7.53;;;;;;;28.03;41.54;101282.03;10596975;28;20435;-74
2022/08/16 15:02:24;;;;;;;9.90;7.40;;;;;;;28.04;41.68;101275.19;10573724;28;20048;-73
2022/08/16 15:07:26;;;;;;;13.27;7.20;;;;;;;28.02;42.00;101269.94;10610409;28;20036;-75
2022/08/16 15:12:29;;;;;;;15.07;7.30;;;;;;;28.04;42.55;101276.00;10596289;28;20036;-74
2022/08/16 15:17:31;;;;;;;10.50;6.32;;;;;;;28.03;42.42;101273.56;10591107;28;20051;-73
2022/08/16 15:22:41;;;;;;;8.13;6.72;;;;;;;27.98;42.34;101262.63;10608303;27;20044;-76
2022/08/16 15:27:44;;;;;;;9.02;6.63;;;;;;;27.93;42.10;101267.41;10595927;27;20046;-77
2022/08/16 15:32:46;;;;;;;12.80;6.85;;;;;;;27.87;43.18;101273.78;10596611;28;20066;-73
2022/08/16 15:37:50;;;;;;;11.93;6.90;;;;;;;27.84;42.39;101263.25;10580438;28;20044;-77
2022/08/16 15:42:55;;;;;;;9.90;7.03;;;;;;;27.77;43.05;101261.19;10574838;28;20032;-77
2022/08/16 15:47:58;;;;;;;11.00;6.30;;;;;;;27.73;42.76;101260.28;10612560;28;20050;-76
2022/08/16 15:53:04;;;;;;;10.98;6.93;;;;;;;27.70;43.41;101260.25;10597072;28;20035;-74
2022/08/16 15:58:06;;;;;;;9.60;6.20;;;;;;;27.66;42.64;101257.41;10566527;28;20043;-73
2022/08/16 16:03:13;;;;;;;8.70;6.20;;;;;;;27.62;42.73;101243.22;10597228;28;20037;-73
2022/08/16 16:08:17;;;;;;;9.60;6.53;;;;;;;27.59;43.97;101249.59;10602918;28;20047;-73
2022/08/16 16:13:19;;;;;;;8.27;6.38;;;;;;;27.56;44.01;101253.19;10605074;28;20043;-73
2022/08/16 16:18:28;;;;;;;12.40;6.60;;;;;;;27.53;43.50;101255.97;10556292;28;20043;-74
2022/08/16 16:23:43;;;;;;;9.52;6.47;;;;;;;27.51;43.71;101259.19;10602441;27;20032;-73
2022/08/16 16:28:45;;;;;;;8.15;6.70;;;;;;;27.47;44.09;101261.13;10588607;28;20036;-73
2022/08/16 16:33:54;;;;;;;12.57;6.50;;;;;;;27.45;43.92;101262.72;10555865;28;20165;-76
2022/08/16 16:38:57;;;;;;;9.00;6.60;;;;;;;27.40;44.59;101251.75;10592375;28;20044;-76
2022/08/16 16:44:00;;;;;;;9.63;6.78;;;;;;;27.36;44.26;101265.81;10612279;28;20402;-74
2022/08/16 16:49:05;;;;;;;9.75;6.78;;;;;;;27.32;43.97;101271.38;10629016;27;20058;-74
2022/08/16 16:54:09;;;;;;;10.18;7.05;;;;;;;27.29;44.92;101272.16;10564838;28;20405;-75
2022/08/16 16:59:11;;;;;;;11.30;6.70;;;;;;;27.26;45.43;101255.19;10607892;28;20039;-75
2022/08/16 17:04:15;;;;;;;10.90;7.32;;;;;;;27.19;45.42;101264.34;10605019;28;20051;-73
2022/08/16 17:09:17;;;;;;;11.80;6.60;;;;;;;27.15;45.49;101257.03;10584936;27;20044;-73
2022/08/16 17:14:19;;;;;;;11.75;6.05;;;;;;;27.10;46.32;101258.19;10597314;28;20047;-74
2022/08/16 17:19:21;;;;;;;12.35;6.60;;;;;;;27.06;45.66;101257.28;10611783;28;20047;-74
2022/08/16 17:24:23;;;;;;;9.73;7.20;;;;;;;26.98;47.63;101261.16;10602773;28;20401;-74
2022/08/16 17:29:26;;;;;;;15.25;7.70;;;;;;;26.86;49.25;101269.81;10559025;28;20051;-73
2022/08/16 17:34:28;;;;;;;8.05;5.90;;;;;;;26.70;50.59;101273.56;10564460;28;20047;-75
2022/08/16 17:39:34;;;;;;;10.75;7.28;;;;;;;26.54;52.09;101267.25;10586257;28;20035;-74
2022/08/16 17:44:36;;;;;;;13.55;6.85;;;;;;;26.37;52.81;101273.38;10573160;28;20504;-77
2022/08/16 17:49:38;;;;;;;10.35;6.97;;;;;;;26.24;54.33;101271.91;10614445;28;20393;-74
2022/08/16 17:54:40;;;;;;;8.25;6.20;;;;;;;26.09;55.06;101282.06;10637335;27;20031;-75
2022/08/16 17:59:43;;;;;;;11.13;7.60;;;;;;;25.95;55.80;101274.13;10601617;28;20044;-75
2022/08/16 18:04:45;;;;;;;9.65;6.00;;;;;;;25.77;54.80;101268.13;10596391;28;20631;-77
2022/08/16 18:09:47;;;;;;;7.28;5.95;;;;;;;25.62;56.43;101279.41;10614013;28;20425;-74
2022/08/16 18:14:49;;;;;;;7.68;5.75;;;;;;;25.47;56.87;101264.22;10596827;28;20040;-74
2022/08/16 18:19:51;;;;;;;13.35;7.78;;;;;;;25.33;57.33;101267.50;10584224;28;20074;-76
2022/08/16 18:24:55;;;;;;;9.23;6.47;;;;;;;25.19;56.42;101264.41;10617521;27;20405;-75
2022/08/16 18:29:57;;;;;;;11.50;6.95;;;;;;;25.07;57.30;101265.31;10604733;28;20040;-75
2022/08/16 18:34:59;;;;;;;13.55;8.25;;;;;;;24.98;57.92;101270.25;10621898;27;20669;-75
2022/08/16 18:40:01;;;;;;;9.45;6.15;;;;;;;24.89;57.66;101269.66;10608031;27;20039;-74
2022/08/16 18:45:05;;;;;;;8.90;6.00;;;;;;;24.82;57.91;101267.50;10594537;28;20611;-74
2022/08/16 18:50:07;;;;;;;10.55;7.30;;;;;;;24.76;57.46;101260.50;10613603;28;20031;-75
2022/08/16 18:55:10;;;;;;;10.07;6.93;;;;;;;24.69;57.73;101257.53;10597596;28;20032;-75
2022/08/16 19:00:13;;;;;;;10.68;7.43;;;;;;;24.65;58.78;101262.25;10614592;28;20097;-75
2022/08/16 19:05:21;;;;;;;10.57;7.53;;;;;;;24.59;58.24;101260.88;10613268;28;20125;-75
2022/08/16 19:10:23;;;;;;;9.10;6.95;;;;;;;24.60;58.28;101259.69;10608633;28;20417;-74
2022/08/16 19:15:27;;;;;;;11.07;7.50;;;;;;;24.53;58.82;101254.72;10596358;27;20421;-74
2022/08/16 19:20:30;;;;;;;12.23;7.88;;;;;;;24.50;58.94;101246.22;10608387;28;20043;-75
2022/08/16 19:25:37;;;;;;;9.27;6.70;;;;;;;24.48;58.27;101249.38;10586583;28;20052;-75
2022/08/16 19:30:39;;;;;;;11.93;7.15;;;;;;;24.47;59.09;101244.94;10599870;28;20127;-76
2022/08/16 19:35:41;;;;;;;10.70;7.38;;;;;;;24.42;59.26;101250.81;10580656;28;20052;-75
2022/08/16 19:40:43;;;;;;;16.05;8.68;;;;;;;24.35;60.03;101254.25;10614967;28;20515;-74
2022/08/16 19:45:47;;;;;;;16.83;9.32;;;;;;;24.35;59.60;101248.63;10578199;28;20044;-75
2022/08/16 19:50:50;;;;;;;15.05;8.90;;;;;;;24.30;59.13;101253.69;10596652;28;20509;-76
2022/08/16 19:55:53;;;;;;;13.10;9.57;;;;;;;24.24;60.33;101253.09;10601219;28;20036;-75
2022/08/16 20:00:57;;;;;;;12.05;8.13;;;;;;;24.18;59.87;101251.75;10596857;28;20134;-75
2022/08/16 20:06:00;;;;;;;20.10;9.57;;;;;;;24.13;60.33;101265.22;10605144;27;20032;-75
2022/08/16 20:11:02;;;;;;;13.10;9.65;;;;;;;24.06;60.11;101261.03;10640569;27;20051;-75
2022/08/16 20:16:04;;;;;;;10.98;7.03;;;;;;;24.01;61.01;101266.88;10552713;28;20056;-76
2022/08/16 20:21:07;;;;;;;10.35;7.20;;;;;;;23.96;60.15;101257.94;10570625;28;20044;-76
2022/08/16 20:26:09;;;;;;;12.15;7.88;;;;;;;23.94;61.25;101263.06;10572086;28;20036;-75
2022/08/16 20:31:12;;;;;;;12.77;9.07;;;;;;;23.92;60.52;101259.78;10564569;28;20047;-77
2022/08/16 20:36:14;;;;;;;13.60;8.75;;;;;;;23.90;61.11;101268.56;10568966;28;20527;-74
2022/08/16 20:41:17;;;;;;;13.35;8.93;;;;;;;23.85;60.83;101273.63;10571120;28;20474;-76
2022/08/16 20:46:19;;;;;;;13.85;8.73;;;;;;;23.80;61.66;101277.50;10543676;28;20529;-75
2022/08/16 20:51:21;;;;;;;11.88;8.85;;;;;;;23.79;61.39;101272.25;10549893;28;20035;-75
2022/08/16 20:56:24;;;;;;;9.38;6.20;;;;;;;23.76;61.80;101277.38;10567287;28;20036;-76
2022/08/16 21:01:26;;;;;;;12.05;6.95;;;;;;;23.74;60.70;101276.09;10510932;28;20049;-75
2022/08/16 21:06:29;;;;;;;14.18;8.27;;;;;;;23.70;61.90;101287.19;10563639;28;20048;-75
2022/08/16 21:11:31;;;;;;;12.18;7.32;;;;;;;23.68;61.76;101283.13;10564545;28;20028;-75
2022/08/16 21:16:33;;;;;;;12.80;8.55;;;;;;;23.70;61.13;101289.19;10598592;27;20473;-75
2022/08/16 21:21:35;;;;;;;14.65;9.30;;;;;;;23.62;61.77;101282.56;10586740;27;20042;-75
2022/08/16 21:26:37;;;;;;;12.40;8.15;;;;;;;23.56;62.89;101285.91;10590399;28;20050;-74
2022/08/16 21:31:40;;;;;;;14.88;8.13;;;;;;;23.51;61.90;101283.38;10591316;28;20505;-74
2022/08/16 21:36:43;;;;;;;16.77;8.27;;;;;;;23.45;62.23;101294.00;10577433;28;20048;-74
2022/08/16 21:41:45;;;;;;;9.63;6.78;;;;;;;23.40;62.60;101295.03;10596612;28;20048;-75
2022/08/16 21:46:47;;;;;;;10.23;7.72;;;;;;;23.41;63.13;101284.66;10591941;28;20028;-76
2022/08/16 21:51:49;;;;;;;11.52;7.13;;;;;;;23.39;62.84;101281.41;10588495;28;20042;-74
2022/08/16 21:56:51;;;;;;;11.80;7.70;;;;;;;23.35;62.63;101286.06;10590712;28;20040;-75
2022/08/16 22:01:54;;;;;;;12.20;6.93;;;;;;;23.36;63.35;101280.13;10609625;28;20070;-74
2022/08/16 22:06:56;;;;;;;13.60;8.60;;;;;;;23.39;62.85;101287.81;10591297;28;20036;-75
2022/08/16 22:11:58;;;;;;;11.65;8.45;;;;;;;23.30;63.04;101280.72;10611966;28;20039;-74
2022/08/16 22:17:01;;;;;;;11.73;7.85;;;;;;;23.29;63.26;101281.88;10620595;28;20086;-73
2022/08/16 22:22:04;;;;;;;14.52;9.27;;;;;;;23.20;63.95;101282.00;10617842;28;20043;-73
2022/08/16 22:27:07;;;;;;;10.70;7.80;;;;;;;23.15;64.48;101282.25;10591379;28;20056;-74
2022/08/16 22:32:09;;;;;;;13.88;8.88;;;;;;;23.12;63.93;101283.78;10601541;28;20409;-74
2022/08/16 22:37:11;;;;;;;12.70;8.27;;;;;;;23.00;64.32;101275.38;10604953;28;20050;-75
2022/08/16 22:42:13;;;;;;;12.25;8.80;;;;;;;22.98;64.63;101276.88;10598197;28;20054;-75
2022/08/16 22:47:16;;;;;;;12.25;8.52;;;;;;;22.95;64.91;101272.81;10613238;28;20408;-75
2022/08/16 22:52:18;;;;;;;11.85;8.00;;;;;;;22.88;65.42;101275.34;10589291;27;20043;-75
2022/08/16 22:57:20;;;;;;;14.18;8.52;;;;;;;22.95;65.03;101272.81;10595548;28;20043;-75
2022/08/16 23:02:22;;;;;;;11.93;8.40;;;;;;;22.93;64.48;101277.94;10613244;28;20035;-75
2022/08/16 23:07:24;;;;;;;14.60;8.45;;;;;;;22.81;65.71;101275.09;10574369;28;20047;-75